• Join FlightAware (Why Join?)
  • Login
  • US Flag 
12:55PM EDT


 

Airport Tracker/Info


-or-


 

Live Flight TrackerFlight Track Log ✈ JZA7828 ✈ 09-Oct-2013 ✈ CYTS - CYYZ

Flight Track Log - Related Links

Times and Time Zones

All times are in EDT time to prevent confusion due to time zone crossing. See the JZA7828 flight status page for this flight to view local times or setup timezone preferences in your user account.

Time Position Orientation Groundspeed Altitude Reporting Facility
EDT Latitude Longitude Course Direction KTS MPH feet Rate Location/Type
12:03PM 48.3333 -81.3667 170° South 250 288 9,500  Level Toronto Center
12:04PM 48.1080 -81.1975 199° South  Level Estimated
12:04PM 48.2667 -81.3333 162° South 270 311 11,600  Level Toronto Center
12:05PM 48.0156 -81.1620 199° South  Level Estimated
12:05PM 48.1833 -81.3000 165° South 280 322 13,300  Level Toronto Center
12:06PM 47.9474 -81.2618 224° Southwest  Level FlightAware Approximate
12:06PM 48.1000 -81.3000 180° South 280 322 15,300  Level Toronto Center
12:07PM 47.8792 -81.3612 224° Southwest  Level FlightAware Approximate
12:07PM 48.0333 -81.2833 171° South 290 334 16,900  Level Toronto Center
12:08PM 47.8059 -81.2887 146° Southeast  Level FlightAware Approximate
12:08PM 47.9500 -81.2500 165° South 290 334 18,300  Level Toronto Center
12:09PM 47.7180 -81.2378 170° South  Level FlightAware Approximate
12:09PM 47.8667 -81.2167 165° South 280 322 19,900  Level Toronto Center
12:10PM 47.8000 -81.2000 170° South 280 322 21,500 1,500 Climbing Toronto Center
12:11PM 47.7167 -81.1667 165° South 270 311 23,000 1,320 Climbing Toronto Center
12:12PM 47.6500 -81.1333 161° South 280 322 24,200 960 Climbing Toronto Center
12:13PM 47.5667 -81.1333 180° South 280 322 25,000 360 Climbing Toronto Center
12:14PM 47.4833 -81.1167 172° South 310 357 25,000  Level Toronto Center
12:15PM 47.3833 -81.0667 161° South 340 391 25,000  Level Toronto Center
12:16PM 47.3000 -81.0333 165° South 350 403 25,000  Level Toronto Center
12:17PM 47.2000 -81.0000 167° South 360 414 25,000  Level Toronto Center
12:18PM 47.1000 -80.9833 174° South 350 403 25,000  Level Toronto Center
12:19PM 47.0167 -80.9500 165° South 350 403 25,000  Level Toronto Center
12:20PM 46.9000 -80.9167 169° South 350 403 25,000  Level Toronto Center
12:21PM 46.8333 -80.9000 170° South 350 403 25,000  Level Toronto Center
12:22PM 46.7333 -80.8667 167° South 360 414 25,000  Level Toronto Center
12:23PM 46.6333 -80.8500 173° South 360 414 25,000  Level Toronto Center
12:24PM 46.5333 -80.8167 167° South 360 414 25,000  Level Toronto Center
12:25PM 46.4333 -80.8000 173° South 350 403 25,000  Level Toronto Center
12:26PM 46.3333 -80.7500 161° South 350 403 25,000  Level Toronto Center
12:27PM 46.2500 -80.7167 165° South 350 403 25,000  Level Toronto Center
12:28PM 46.1500 -80.6833 167° South 360 414 25,000  Level Toronto Center
12:29PM 46.0500 -80.6667 173° South 350 403 25,000  Level Toronto Center
12:30PM 45.9667 -80.6333 164° South 350 403 25,000  Level Toronto Center
12:31PM 45.8667 -80.6167 173° South 350 403 25,000  Level Toronto Center
12:32PM 45.7667 -80.5833 167° South 350 403 25,000  Level Toronto Center
12:33PM 45.6667 -80.5667 173° South 350 403 25,000  Level Toronto Center
12:34PM 45.5667 -80.5333 167° South 350 403 25,000  Level Toronto Center
12:35PM 45.4667 -80.5167 173° South 350 403 25,000  Level Toronto Center
12:36PM 45.3833 -80.4667 157° South 350 403 25,000  Level Toronto Center
12:37PM 45.2833 -80.4333 167° South 350 403 25,000  Level Toronto Center
12:38PM 45.1833 -80.4167 173° South 350 403 25,000  Level Toronto Center
12:39PM 45.0833 -80.3833 167° South 350 403 25,000  Level Toronto Center
12:40PM 45.0000 -80.3667 172° South 350 403 25,000  Level Toronto Center
12:41PM 44.9000 -80.3333 167° South 350 403 25,000  Level Toronto Center
12:42PM 44.8000 -80.3167 173° South 350 403 25,000 -600 Level Toronto Center
12:43PM 44.7000 -80.2833 167° South 360 414 23,800 -1,380 Descending Toronto Center
12:44PM 44.6000 -80.2667 173° South 350 403 22,300 -1,500 Descending Toronto Center
12:45PM 44.5167 -80.2333 164° South 360 414 20,800 -1,560 Descending Toronto Center
12:46PM 44.4000 -80.2000 168° South 360 414 19,200 -1,500 Descending Toronto Center
12:47PM 44.3167 -80.1667 164° South 370 426 17,900 -1,560 Descending Toronto Center
12:48PM 44.2000 -80.1500 174° South 360 414 16,100 -1,620 Descending Toronto Center
12:49PM 44.1167 -80.1167 164° South 350 403 14,700 -1,440 Descending Toronto Center
12:50PM 44.0500 -80.0333 138° Southeast 350 403 13,300 -1,440 Descending Toronto Center
12:51PM 43.9667 -79.9500 144° Southeast 330 380 11,900 -1,320 Descending Toronto Center
12:52PM 43.9167 -79.8833 136° Southeast 300 345 10,700 -1,200 Descending Toronto Center
12:54PM 43.7833 -79.7500 144° Southeast 280 322 8,300 -1,200 Descending Toronto Center
12:55PM 43.7167 -79.7333 170° South 260 299 7,200 -1,440 Descending Toronto Center
12:56PM 43.6667 -79.8000 224° Southwest 240 276 5,500 -1,620 Descending Toronto Center
12:57PM 43.6333 -79.8667 235° Southwest 220 253 4,000 -840 Descending Toronto Center
12:58PM 43.5833 -79.8833 194° South 200 230 3,900 -300 Descending Toronto Center
12:59PM 43.5500 -79.8667 160° South 200 230 3,400 -480 Descending Toronto Center
01:00PM 43.5667 -79.8000 71° East 180 207 3,000 -480 Descending Toronto Center
01:01PM 43.6000 -79.7500 47° Northeast 180 207 2,500 -720 Descending Toronto Center
01:02PM 43.6333 -79.7000 47° Northeast 160 184 1,600 -840 Descending Toronto Center
01:03PM 43.6500 -79.6500 65° Northeast 140 161 900 -540 Descending Toronto Center
01:04PM 43.6833 -79.6333 20° North 130 150 600 -300 Descending Toronto Center